e-Mail: Password: Lost your password? Click here. - Register a new user

c h a v e z j u a r e z . c o m

Weather - Tiempo - Wetter - Temps

METAR DATA MMMX (Mexico City)

Mexico City / Licenci, Mexico (MMMX) 19-26N 099-06W
Sep 22, 2019 - 05:52 PM EDT / 2019.09.22 2152 UTC
Wind: from the N (350 degrees) at 9 MPH (8 KT):0
Visibility: 7 mile(s):0
Sky conditions: partly cloudy
Weather: Cumulonimbus clouds observed
Temperature: 77 F (25 C)
Dew Point: 46 F (8 C)
Relative Humidity: 33%
Pressure (altimeter): 30.24 in. Hg (1024 hPa)
ob: MMMX 222152Z 35008KT 7SM SCT025 25/08 A3024 NOSIG RMK 8/200 HZY DSNT CB 1ST AND 2ND QUAD
cycle: 22

Mexico City

St. Prex




Current weather alarms for Switzerland


www.wetteralarm.ch